createdAt,value
2023-05-08T00:00:42.193Z,12.93
2023-05-08T00:03:10.296Z,12.93
2023-05-08T00:05:38.205Z,12.92
2023-05-08T00:08:07.655Z,12.92
2023-05-08T00:10:35.766Z,12.79
2023-05-08T00:13:03.735Z,12.98
2023-05-08T00:15:31.770Z,12.92
2023-05-08T00:17:59.758Z,13.02
2023-05-08T00:20:28.004Z,12.83
2023-05-08T00:22:56.789Z,12.84
2023-05-08T00:25:26.189Z,12.46
2023-05-08T00:27:54.223Z,12.32
2023-05-08T00:30:22.253Z,12.21
2023-05-08T00:32:50.224Z,12.21
2023-05-08T00:35:18.153Z,12.07
2023-05-08T00:37:46.128Z,12.37
2023-05-08T00:40:14.318Z,12.29
2023-05-08T00:42:43.885Z,12.40
2023-05-08T00:45:12.784Z,12.43
2023-05-08T00:47:41.144Z,12.60
2023-05-08T00:50:10.949Z,12.34
2023-05-08T00:52:39.908Z,12.23
2023-05-08T00:55:08.653Z,12.37
2023-05-08T00:57:37.932Z,12.28
2023-05-08T01:00:08.751Z,12.21
2023-05-08T01:02:37.109Z,12.26
2023-05-08T01:05:05.511Z,12.14
2023-05-08T01:07:33.614Z,11.78
2023-05-08T01:10:01.543Z,11.81
2023-05-08T01:12:41.074Z,11.93
2023-05-08T01:15:16.991Z,12.18
2023-05-08T01:17:57.240Z,12.22
2023-05-08T01:20:36.868Z,12.31
2023-05-08T01:23:39.692Z,12.29
2023-05-08T01:26:45.895Z,12.05
2023-05-08T01:29:49.068Z,12.03
2023-05-08T01:32:21.332Z,12.18
2023-05-08T01:34:58.787Z,12.11
2023-05-08T01:37:33.946Z,12.01
2023-05-08T01:40:11.327Z,12.05
2023-05-08T01:42:54.638Z,11.67
2023-05-08T01:45:27.059Z,11.64
2023-05-08T01:48:03.074Z,11.79
2023-05-08T01:50:36.690Z,11.50
2023-05-08T01:53:14.642Z,11.54
2023-05-08T01:55:44.946Z,11.75
2023-05-08T01:58:13.788Z,11.65
2023-05-08T02:00:44.185Z,11.80
2023-05-08T02:03:15.439Z,11.77
2023-05-08T02:05:45.110Z,11.66
2023-05-08T02:08:15.172Z,11.73
2023-05-08T02:10:44.421Z,11.70
2023-05-08T02:13:14.309Z,11.75
2023-05-08T02:15:43.972Z,11.62
2023-05-08T02:18:14.368Z,11.57
2023-05-08T02:20:43.294Z,11.50
2023-05-08T02:23:12.626Z,11.47
2023-05-08T02:25:41.206Z,11.45
2023-05-08T02:28:09.865Z,11.48
2023-05-08T02:30:38.486Z,11.53
2023-05-08T02:33:09.401Z,11.49
2023-05-08T02:35:40.407Z,11.40
2023-05-08T02:38:10.816Z,11.35
2023-05-08T02:40:42.981Z,11.33
2023-05-08T02:43:11.342Z,11.41
2023-05-08T02:45:45.853Z,11.43
2023-05-08T02:48:21.190Z,11.56
2023-05-08T02:50:59.262Z,11.60
2023-05-08T02:53:35.661Z,11.20
2023-05-08T02:56:11.221Z,11.20
2023-05-08T02:58:47.307Z,11.14
2023-05-08T03:01:22.907Z,10.90
2023-05-08T03:03:57.593Z,10.85
2023-05-08T03:06:29.394Z,11.08
2023-05-08T03:09:01.461Z,11.12
2023-05-08T03:11:39.879Z,10.92
2023-05-08T03:14:12.144Z,10.76
2023-05-08T03:16:42.786Z,10.89
2023-05-08T03:19:20.025Z,10.87
2023-05-08T03:21:52.596Z,11.06
2023-05-08T03:24:23.823Z,11.17
2023-05-08T03:26:51.916Z,11.32
2023-05-08T03:29:20.210Z,11.38
2023-05-08T03:31:49.513Z,11.38
2023-05-08T03:34:20.506Z,11.28
2023-05-08T03:36:48.414Z,11.19
2023-05-08T03:39:17.851Z,11.21
2023-05-08T03:41:46.409Z,11.27
2023-05-08T03:44:15.750Z,11.27
2023-05-08T03:46:44.203Z,11.27
2023-05-08T03:49:13.292Z,11.28
2023-05-08T03:51:42.146Z,11.27
2023-05-08T03:54:10.088Z,11.34
2023-05-08T03:56:39.408Z,11.33
2023-05-08T03:59:17.027Z,11.35
2023-05-08T04:01:53.935Z,11.51
2023-05-08T04:04:27.572Z,11.62
2023-05-08T04:07:04.170Z,11.85
2023-05-08T04:09:38.366Z,11.63
2023-05-08T04:12:22.922Z,11.78
2023-05-08T04:14:56.528Z,11.68
2023-05-08T04:17:34.827Z,12.22
2023-05-08T04:20:06.390Z,12.20
2023-05-08T04:22:35.869Z,12.46
2023-05-08T04:25:08.000Z,12.48
2023-05-08T04:27:39.534Z,12.46
2023-05-08T04:30:10.212Z,12.19
2023-05-08T04:32:40.930Z,11.98
2023-05-08T04:35:10.808Z,11.82
2023-05-08T04:37:38.825Z,12.10
2023-05-08T04:40:08.148Z,12.22
2023-05-08T04:42:39.409Z,12.39
2023-05-08T04:45:08.344Z,12.64
2023-05-08T04:47:36.373Z,12.81
2023-05-08T04:50:04.422Z,12.82
2023-05-08T04:52:32.377Z,12.79
2023-05-08T04:55:00.603Z,12.80
2023-05-08T04:57:28.596Z,13.10
2023-05-08T04:59:57.977Z,13.10
2023-05-08T05:02:27.056Z,12.92
2023-05-08T05:04:58.728Z,13.16
2023-05-08T05:07:26.606Z,13.53
2023-05-08T05:09:54.450Z,13.80
2023-05-08T05:12:22.387Z,13.93
2023-05-08T05:14:50.297Z,14.06
2023-05-08T05:17:19.536Z,14.25
2023-05-08T05:19:47.464Z,14.42
2023-05-08T05:22:15.339Z,14.68
2023-05-08T05:24:43.253Z,14.60
2023-05-08T05:27:11.131Z,14.74
2023-05-08T05:29:39.063Z,14.57
2023-05-08T05:32:07.538Z,14.05
2023-05-08T05:34:37.419Z,14.19
2023-05-08T05:37:05.326Z,14.78
2023-05-08T05:39:33.207Z,14.68
2023-05-08T05:42:01.131Z,14.55
2023-05-08T05:44:29.088Z,14.40
2023-05-08T05:46:57.022Z,14.58
2023-05-08T05:49:25.341Z,14.82
2023-05-08T05:51:54.612Z,15.71
2023-05-08T05:54:22.566Z,16.87
2023-05-08T05:56:50.426Z,17.92
2023-05-08T05:59:18.430Z,18.05
2023-05-08T06:01:46.728Z,17.74
2023-05-08T06:04:14.674Z,17.25
2023-05-08T06:06:42.631Z,17.12
2023-05-08T06:09:11.926Z,16.62
2023-05-08T06:11:39.892Z,16.58
2023-05-08T06:14:07.809Z,16.64
2023-05-08T06:16:36.156Z,17.03
2023-05-08T06:19:04.148Z,17.01
2023-05-08T06:21:32.005Z,16.86
2023-05-08T06:23:59.916Z,16.51
2023-05-08T06:26:29.194Z,16.05
2023-05-08T06:28:57.122Z,15.50
2023-05-08T06:31:25.208Z,15.74
2023-05-08T06:33:53.129Z,15.44
2023-05-08T06:36:21.070Z,15.96
2023-05-08T06:38:49.001Z,16.09
2023-05-08T06:41:17.047Z,16.37
2023-05-08T06:43:46.328Z,15.90
2023-05-08T06:46:14.295Z,15.57
2023-05-08T06:48:42.249Z,15.87
2023-05-08T06:51:10.639Z,16.11
2023-05-08T06:53:38.557Z,15.88
2023-05-08T06:56:07.130Z,16.08
2023-05-08T06:58:35.827Z,16.18
2023-05-08T07:01:05.144Z,15.95
2023-05-08T07:03:33.215Z,15.74
2023-05-08T07:06:01.119Z,15.81
2023-05-08T07:08:30.194Z,15.82
2023-05-08T07:10:58.085Z,16.30
2023-05-08T07:13:26.160Z,16.61
2023-05-08T07:15:54.158Z,16.79
2023-05-08T07:18:23.644Z,17.12
2023-05-08T07:20:51.523Z,17.28
2023-05-08T07:23:19.573Z,17.25
2023-05-08T07:25:47.458Z,17.41
2023-05-08T07:28:15.507Z,17.55
2023-05-08T07:30:43.357Z,17.62
2023-05-08T07:33:11.560Z,17.47
2023-05-08T07:35:41.510Z,17.41
2023-05-08T07:38:09.609Z,17.37
2023-05-08T07:40:37.752Z,17.57
2023-05-08T07:43:05.637Z,17.85
2023-05-08T07:45:34.657Z,17.94
2023-05-08T07:48:02.627Z,18.01
2023-05-08T07:50:31.482Z,17.97
2023-05-08T07:53:00.879Z,16.85
2023-05-08T07:55:28.903Z,17.05
2023-05-08T07:57:56.885Z,16.78
2023-05-08T08:00:24.820Z,17.25
2023-05-08T08:02:52.884Z,17.59
2023-05-08T08:05:21.106Z,17.80
2023-05-08T08:07:49.108Z,17.87
2023-05-08T08:10:18.455Z,17.81
2023-05-08T08:12:46.516Z,17.75
2023-05-08T08:15:14.679Z,18.05
2023-05-08T08:17:42.738Z,18.45
2023-05-08T08:20:11.114Z,18.73
2023-05-08T08:22:39.173Z,18.72
2023-05-08T08:25:07.957Z,18.68
2023-05-08T08:27:37.205Z,18.59
2023-05-08T08:30:16.904Z,18.58
2023-05-08T08:32:46.666Z,18.41
2023-05-08T08:35:14.942Z,18.56
2023-05-08T08:37:43.667Z,18.38
2023-05-08T08:40:12.067Z,18.25
2023-05-08T08:42:41.904Z,17.73
2023-05-08T08:45:10.349Z,17.68
2023-05-08T08:47:39.925Z,18.19
2023-05-08T08:50:12.018Z,18.18
2023-05-08T08:52:48.146Z,18.73
2023-05-08T08:55:17.829Z,18.79
2023-05-08T08:57:54.298Z,19.13
2023-05-08T09:00:24.546Z,18.79
2023-05-08T09:02:53.431Z,18.98
2023-05-08T09:05:23.556Z,18.86
2023-05-08T09:07:55.439Z,19.06
2023-05-08T09:10:25.155Z,19.47
2023-05-08T09:12:54.631Z,19.65
2023-05-08T09:15:22.658Z,19.47
2023-05-08T09:17:50.737Z,19.91
2023-05-08T09:20:18.841Z,20.05
2023-05-08T09:22:47.603Z,20.22
2023-05-08T09:25:15.737Z,19.72
2023-05-08T09:27:43.883Z,19.76
2023-05-08T09:30:14.549Z,19.95
2023-05-08T09:32:44.371Z,19.67
2023-05-08T09:35:13.616Z,19.60
2023-05-08T09:37:43.398Z,20.08
2023-05-08T09:40:16.697Z,20.54
2023-05-08T09:42:44.901Z,20.87
2023-05-08T09:45:28.261Z,20.71
2023-05-08T09:47:56.389Z,20.66
2023-05-08T09:50:25.307Z,20.96
2023-05-08T09:52:53.462Z,21.31
2023-05-08T09:55:21.553Z,21.42
2023-05-08T09:57:57.869Z,21.70
2023-05-08T10:00:28.482Z,21.72
2023-05-08T10:02:58.398Z,22.01
2023-05-08T10:05:29.968Z,21.98
2023-05-08T10:07:58.980Z,22.16
2023-05-08T10:10:27.888Z,22.08
2023-05-08T10:12:57.684Z,22.01
2023-05-08T10:15:30.259Z,22.08
2023-05-08T10:18:04.568Z,21.63
2023-05-08T10:20:33.729Z,21.13
2023-05-08T10:23:02.579Z,20.54
2023-05-08T10:25:33.806Z,20.51
2023-05-08T10:28:11.134Z,20.94
2023-05-08T10:30:45.677Z,21.41
2023-05-08T10:33:18.040Z,21.31
2023-05-08T10:35:46.709Z,21.64
2023-05-08T10:38:17.899Z,21.58
2023-05-08T10:40:46.322Z,21.50
2023-05-08T10:43:14.486Z,21.38
2023-05-08T10:45:44.630Z,21.58
2023-05-08T10:48:20.492Z,21.50
2023-05-08T10:50:58.576Z,21.55
2023-05-08T10:53:36.103Z,21.74
2023-05-08T10:56:04.344Z,22.19
2023-05-08T10:58:33.627Z,21.94
2023-05-08T11:01:18.502Z,22.32
2023-05-08T11:03:55.117Z,22.37
2023-05-08T11:06:45.539Z,21.50
2023-05-08T11:09:22.041Z,21.75
2023-05-08T11:12:00.495Z,22.05
2023-05-08T11:14:29.957Z,22.04
2023-05-08T11:17:09.974Z,21.95
2023-05-08T11:19:39.242Z,22.13
2023-05-08T11:22:24.871Z,22.34
2023-05-08T11:24:58.489Z,21.81
2023-05-08T11:27:40.932Z,21.82
2023-05-08T11:30:26.752Z,21.86
2023-05-08T11:33:13.910Z,21.87
2023-05-08T11:35:43.107Z,22.47
2023-05-08T11:38:18.553Z,22.86
2023-05-08T11:40:48.190Z,22.93
2023-05-08T11:43:52.713Z,22.75
2023-05-08T11:46:22.524Z,22.60
2023-05-08T11:49:01.356Z,22.91
2023-05-08T11:51:32.622Z,22.84
2023-05-08T11:54:01.013Z,22.35
2023-05-08T11:56:29.107Z,22.69
2023-05-08T11:59:04.673Z,22.93
2023-05-08T12:01:33.226Z,22.82
2023-05-08T12:04:03.772Z,22.53
2023-05-08T12:06:32.957Z,22.46
2023-05-08T12:09:01.252Z,22.19
2023-05-08T12:11:29.362Z,21.91
2023-05-08T12:13:57.344Z,22.33
2023-05-08T12:16:26.364Z,22.46
2023-05-08T12:18:57.510Z,22.47
2023-05-08T12:21:27.630Z,22.38
2023-05-08T12:23:56.150Z,22.52
2023-05-08T12:26:24.053Z,22.61
2023-05-08T12:28:56.181Z,22.34
2023-05-08T12:31:24.585Z,22.09
2023-05-08T12:33:53.623Z,22.45
2023-05-08T12:36:21.562Z,22.38
2023-05-08T12:38:52.174Z,22.13
2023-05-08T12:41:25.019Z,22.16
2023-05-08T12:43:52.930Z,22.51
2023-05-08T12:46:22.462Z,22.33
2023-05-08T12:48:50.380Z,22.19
2023-05-08T12:51:18.348Z,22.25
2023-05-08T12:53:47.721Z,22.38
2023-05-08T12:56:23.502Z,22.39
2023-05-08T12:58:51.395Z,22.09
2023-05-08T13:01:19.375Z,22.12
2023-05-08T13:04:01.769Z,22.39
2023-05-08T13:06:31.845Z,22.22
2023-05-08T13:08:59.793Z,22.60
2023-05-08T13:11:33.354Z,23.17
2023-05-08T13:14:01.754Z,22.91
2023-05-08T13:16:29.859Z,22.57
2023-05-08T13:18:57.761Z,22.49
2023-05-08T13:21:27.519Z,22.74
2023-05-08T13:23:56.710Z,22.62
2023-05-08T13:26:25.735Z,22.77
2023-05-08T13:28:56.625Z,22.38
2023-05-08T13:31:24.971Z,22.38
2023-05-08T13:33:52.923Z,22.48
2023-05-08T13:36:21.561Z,22.39
2023-05-08T13:38:51.308Z,22.45
2023-05-08T13:41:19.254Z,22.65
2023-05-08T13:43:48.342Z,22.79
2023-05-08T13:46:17.759Z,22.84
2023-05-08T13:48:45.724Z,22.80
2023-05-08T13:51:13.647Z,22.96
2023-05-08T13:53:41.618Z,23.05
2023-05-08T13:56:09.444Z,23.17
2023-05-08T13:58:37.440Z,23.15
2023-05-08T14:01:21.782Z,23.28
2023-05-08T14:03:51.830Z,22.90
2023-05-08T14:06:20.575Z,22.98
2023-05-08T14:08:50.608Z,22.97
2023-05-08T14:11:19.493Z,22.70
2023-05-08T14:13:47.433Z,22.62
2023-05-08T14:16:16.248Z,22.63
2023-05-08T14:18:44.295Z,22.52
2023-05-08T14:21:13.485Z,22.68
2023-05-08T14:23:41.407Z,22.96
2023-05-08T14:26:09.266Z,22.95
2023-05-08T14:28:37.160Z,22.88
2023-05-08T14:31:05.097Z,22.78
2023-05-08T14:33:33.010Z,22.66
2023-05-08T14:36:00.939Z,22.66
2023-05-08T14:38:30.220Z,22.62
2023-05-08T14:40:58.234Z,22.70
2023-05-08T14:43:26.183Z,22.37
2023-05-08T14:45:54.157Z,22.24
2023-05-08T14:48:22.183Z,22.24
2023-05-08T14:50:50.113Z,22.31
2023-05-08T14:53:18.190Z,22.34
2023-05-08T14:55:47.862Z,22.47
2023-05-08T14:58:15.953Z,22.29
2023-05-08T15:00:43.839Z,22.17
2023-05-08T15:03:12.059Z,22.07
2023-05-08T15:05:40.254Z,21.95
2023-05-08T15:08:08.601Z,21.99
2023-05-08T15:10:36.697Z,21.87
2023-05-08T15:13:06.001Z,22.06
2023-05-08T15:15:34.054Z,21.97
2023-05-08T15:18:02.015Z,21.89
2023-05-08T15:20:30.175Z,21.69
2023-05-08T15:22:58.009Z,21.62
2023-05-08T15:25:26.376Z,21.65
2023-05-08T15:27:54.264Z,21.59
2023-05-08T15:30:23.788Z,21.55
2023-05-08T15:32:52.858Z,21.47
2023-05-08T15:35:20.897Z,21.27
2023-05-08T15:37:48.828Z,21.06
2023-05-08T15:40:16.979Z,20.96
2023-05-08T15:42:44.885Z,20.72
2023-05-08T15:45:12.918Z,20.74
2023-05-08T15:47:42.319Z,20.51
2023-05-08T15:50:10.899Z,20.48
2023-05-08T15:52:38.826Z,20.37
2023-05-08T15:55:07.440Z,20.45
2023-05-08T15:57:35.301Z,20.45
2023-05-08T16:00:03.247Z,20.47
2023-05-08T16:02:31.270Z,20.54
2023-05-08T16:05:00.577Z,20.22
2023-05-08T16:07:28.499Z,20.25
2023-05-08T16:09:56.420Z,20.08
2023-05-08T16:12:24.297Z,20.45
2023-05-08T16:14:52.232Z,20.18
2023-05-08T16:17:20.150Z,20.27
2023-05-08T16:19:48.061Z,20.46
2023-05-08T16:22:17.480Z,20.43
2023-05-08T16:24:45.449Z,20.44
2023-05-08T16:27:13.439Z,20.42
2023-05-08T16:29:41.330Z,20.26
2023-05-08T16:32:09.304Z,20.03
2023-05-08T16:34:37.777Z,19.83
2023-05-08T16:37:05.714Z,19.61
2023-05-08T16:39:35.915Z,18.96
2023-05-08T16:42:03.897Z,18.53
2023-05-08T16:44:31.792Z,18.08
2023-05-08T16:46:59.785Z,17.17
2023-05-08T16:49:27.804Z,16.63
2023-05-08T16:51:55.805Z,16.04
2023-05-08T16:54:23.913Z,15.84
2023-05-08T16:56:53.318Z,15.74
2023-05-08T16:59:21.253Z,15.55
2023-05-08T17:01:49.252Z,15.61
2023-05-08T17:04:17.205Z,15.76
2023-05-08T17:06:45.857Z,15.88
2023-05-08T17:09:13.812Z,15.88
2023-05-08T17:11:41.795Z,16.06
2023-05-08T17:14:11.122Z,16.00
2023-05-08T17:16:39.326Z,16.03
2023-05-08T17:19:07.266Z,16.00
2023-05-08T17:21:35.221Z,16.10
2023-05-08T17:24:03.268Z,16.01
2023-05-08T17:26:33.513Z,16.04
2023-05-08T17:29:01.531Z,16.25
2023-05-08T17:31:30.921Z,16.26
2023-05-08T17:33:58.985Z,16.09
2023-05-08T17:36:26.967Z,16.28
2023-05-08T17:38:54.984Z,16.03
2023-05-08T17:41:23.132Z,15.95
2023-05-08T17:43:51.078Z,16.00
2023-05-08T17:46:19.109Z,16.12
2023-05-08T17:48:48.608Z,16.05
2023-05-08T17:51:16.617Z,16.16
2023-05-08T17:53:44.668Z,16.21
2023-05-08T17:56:12.702Z,16.23
2023-05-08T17:58:41.029Z,16.22
2023-05-08T18:01:08.958Z,16.32
2023-05-08T18:03:37.005Z,16.17
2023-05-08T18:06:06.700Z,16.19
2023-05-08T18:08:35.226Z,15.93
2023-05-08T18:11:03.156Z,15.90
2023-05-08T18:13:31.117Z,15.84
2023-05-08T18:15:59.055Z,15.78
2023-05-08T18:18:27.008Z,15.88
2023-05-08T18:20:54.868Z,15.80
2023-05-08T18:23:24.206Z,15.82
2023-05-08T18:25:52.134Z,15.83
2023-05-08T18:28:20.083Z,15.85
2023-05-08T18:30:48.530Z,15.98
2023-05-08T18:33:16.447Z,15.93
2023-05-08T18:35:44.365Z,15.80
2023-05-08T18:38:12.655Z,15.71
2023-05-08T18:40:41.896Z,15.55
2023-05-08T18:43:09.790Z,15.49
2023-05-08T18:45:39.727Z,15.61
2023-05-08T18:48:07.778Z,15.70
2023-05-08T18:50:35.821Z,15.67
2023-05-08T18:53:03.874Z,15.61
2023-05-08T18:55:31.802Z,15.53
2023-05-08T18:58:01.124Z,15.51
2023-05-08T19:00:29.058Z,15.58
2023-05-08T19:02:57.084Z,15.60
2023-05-08T19:05:25.220Z,15.52
2023-05-08T19:07:53.092Z,15.50
2023-05-08T19:10:21.149Z,15.46
2023-05-08T19:12:50.734Z,15.45
2023-05-08T19:15:20.381Z,15.40
2023-05-08T19:17:48.328Z,15.33
2023-05-08T19:20:16.499Z,15.29
2023-05-08T19:22:44.677Z,15.26
2023-05-08T19:25:13.006Z,15.23
2023-05-08T19:27:41.025Z,15.22
2023-05-08T19:30:10.054Z,15.28
2023-05-08T19:32:39.531Z,15.13
2023-05-08T19:35:09.165Z,15.16
2023-05-08T19:37:40.376Z,15.06
2023-05-08T19:40:09.539Z,14.88
2023-05-08T19:42:37.569Z,14.75
2023-05-08T19:45:06.216Z,14.60
2023-05-08T19:47:34.160Z,14.38
2023-05-08T19:50:03.457Z,14.38
2023-05-08T19:52:31.442Z,14.29
2023-05-08T19:54:59.358Z,14.17
2023-05-08T19:57:27.279Z,14.00
2023-05-08T19:59:56.003Z,14.03
2023-05-08T20:02:24.027Z,13.66
2023-05-08T20:05:18.867Z,13.37
2023-05-08T20:07:41.425Z,12.92
2023-05-08T20:10:10.215Z,12.66
2023-05-08T20:12:38.157Z,12.62
2023-05-08T20:15:06.990Z,12.71
2023-05-08T20:17:34.948Z,12.66
2023-05-08T20:20:02.935Z,12.64
2023-05-08T20:22:30.833Z,12.57
2023-05-08T20:25:01.534Z,12.60
2023-05-08T20:27:31.535Z,12.38
2023-05-08T20:29:59.587Z,12.52
2023-05-08T20:32:27.560Z,12.27
2023-05-08T20:34:55.503Z,12.11
2023-05-08T20:37:23.522Z,12.03
2023-05-08T20:39:51.417Z,12.08
2023-05-08T20:42:20.699Z,12.21
2023-05-08T20:44:48.623Z,12.49
2023-05-08T20:47:16.531Z,12.42
2023-05-08T20:49:44.436Z,12.28
2023-05-08T20:52:12.338Z,12.43
2023-05-08T20:54:40.245Z,12.50
2023-05-08T20:57:08.285Z,12.56
2023-05-08T20:59:37.535Z,12.57
2023-05-08T21:02:05.481Z,12.38
2023-05-08T21:04:33.356Z,12.36
2023-05-08T21:07:02.432Z,12.25
2023-05-08T21:09:30.590Z,12.20
2023-05-08T21:11:58.491Z,12.22
2023-05-08T21:14:26.407Z,12.19
2023-05-08T21:16:55.935Z,12.26
2023-05-08T21:19:23.897Z,12.33
2023-05-08T21:21:51.799Z,12.37
2023-05-08T21:24:19.670Z,12.32
2023-05-08T21:26:47.575Z,12.42
2023-05-08T21:29:15.495Z,12.20
2023-05-08T21:31:43.501Z,12.11
2023-05-08T21:34:13.487Z,12.07
2023-05-08T21:36:41.445Z,12.19
2023-05-08T21:39:09.465Z,12.07
2023-05-08T21:41:37.358Z,12.07
2023-05-08T21:44:05.436Z,12.04
2023-05-08T21:46:33.640Z,11.73
2023-05-08T21:49:01.604Z,11.52
2023-05-08T21:51:31.408Z,11.27
2023-05-08T21:53:59.414Z,11.32
2023-05-08T21:56:27.307Z,11.45
2023-05-08T21:58:55.628Z,11.34
2023-05-08T22:01:23.546Z,10.97
2023-05-08T22:03:51.625Z,11.22
2023-05-08T22:06:19.579Z,10.99
2023-05-08T22:08:48.956Z,11.06
2023-05-08T22:11:16.845Z,11.17
2023-05-08T22:13:44.736Z,10.84
2023-05-08T22:16:12.690Z,10.70
2023-05-08T22:18:40.767Z,10.68
2023-05-08T22:21:08.723Z,10.66
2023-05-08T22:23:36.680Z,10.72
2023-05-08T22:26:06.028Z,10.61
2023-05-08T22:28:33.860Z,10.60
2023-05-08T22:31:01.772Z,10.64
2023-05-08T22:33:32.684Z,10.76
2023-05-08T22:36:00.696Z,10.68
2023-05-08T22:38:28.546Z,10.76
2023-05-08T22:40:57.519Z,10.73
2023-05-08T22:43:27.298Z,10.76
2023-05-08T22:45:55.455Z,10.76
2023-05-08T22:48:23.491Z,10.76
2023-05-08T22:50:51.796Z,10.75
2023-05-08T22:53:19.757Z,10.66
2023-05-08T22:55:47.738Z,10.69
2023-05-08T22:58:15.741Z,10.65
2023-05-08T23:00:45.029Z,10.73
2023-05-08T23:03:14.011Z,10.58
2023-05-08T23:05:41.936Z,10.53
2023-05-08T23:08:09.784Z,10.65
2023-05-08T23:10:37.754Z,10.54
2023-05-08T23:13:05.723Z,10.55
2023-05-08T23:15:33.699Z,10.54
2023-05-08T23:18:03.072Z,10.49
2023-05-08T23:20:31.148Z,10.46
2023-05-08T23:22:59.182Z,10.45
2023-05-08T23:25:27.396Z,10.52
2023-05-08T23:27:55.293Z,10.53
2023-05-08T23:30:23.184Z,10.47
2023-05-08T23:32:51.142Z,10.46
2023-05-08T23:35:20.550Z,10.43
2023-05-08T23:37:48.568Z,10.37
2023-05-08T23:40:17.432Z,10.46
2023-05-08T23:42:45.333Z,10.50
2023-05-08T23:45:13.388Z,10.50
2023-05-08T23:47:41.529Z,10.59
2023-05-08T23:50:09.873Z,10.58
2023-05-08T23:52:39.143Z,10.59
2023-05-08T23:55:08.042Z,10.49
2023-05-08T23:57:36.164Z,10.38
